VSA weather

Carlos Rovirosa PĂ©rez International Airport
Villahermosa, Tabasco, Mexico

Public forecast

Using degrees Celsius for public forecast. Weather courtesy of forecast.io.

METAR (pilot weather report)

Retrieved 2018/07/20 19:42 UTC (0 seconds ago):

MMVA 201942Z 12008KT 8SM SKC 36/19 A2989

TAF (pilot weather forecast)

Forecast is more than 12 hours old.

Retrieved 2018/07/20 06:10 UTC (13 hours ago):

TAF MMVA 200505Z 2006/2106 07006KT P6SM SKC FM201800 06012G22KT P6SM SCT015 SCT080 BKN250 FM210500 06006KT P6SM SKC